createdAt,value
2018-06-30T00:03:12.963Z,101681.69
2018-06-30T00:08:15.215Z,101680.34
2018-06-30T00:13:17.493Z,101673.54
2018-06-30T00:18:19.761Z,101682.50
2018-06-30T00:23:22.085Z,101684.34
2018-06-30T00:28:24.382Z,101683.83
2018-06-30T00:33:26.732Z,101687.23
2018-06-30T00:38:29.052Z,101691.96
2018-06-30T00:43:31.349Z,101693.63
2018-06-30T00:48:33.713Z,101697.94
2018-06-30T00:53:35.982Z,101703.17
2018-06-30T00:58:38.296Z,101705.61
2018-06-30T01:03:40.555Z,101701.81
2018-06-30T01:08:43.311Z,101702.41
2018-06-30T01:13:45.570Z,101702.78
2018-06-30T01:18:47.859Z,101711.06
2018-06-30T01:23:50.157Z,101708.87
2018-06-30T01:28:52.429Z,101708.13
2018-06-30T01:33:54.714Z,101713.10
2018-06-30T01:38:57.016Z,101718.97
2018-06-30T01:43:59.311Z,101712.69
2018-06-30T01:49:01.580Z,101716.03
2018-06-30T01:54:03.896Z,101717.12
2018-06-30T01:59:06.195Z,101715.43
2018-06-30T02:04:08.431Z,101706.38
2018-06-30T02:09:11.238Z,101704.18
2018-06-30T02:14:13.488Z,101710.59
2018-06-30T02:19:15.764Z,101706.22
2018-06-30T02:24:18.045Z,101704.64
2018-06-30T02:29:20.350Z,101711.36
2018-06-30T02:34:22.651Z,101715.66
2018-06-30T02:39:25.823Z,101719.05
2018-06-30T02:44:28.113Z,101726.71
2018-06-30T02:49:30.374Z,101730.59
2018-06-30T02:54:32.687Z,101734.00
2018-06-30T02:59:35.022Z,101730.02
2018-06-30T03:04:37.325Z,101741.19
2018-06-30T03:09:39.926Z,101742.38
2018-06-30T03:14:42.191Z,101750.48
2018-06-30T03:19:44.470Z,101749.95
2018-06-30T03:24:46.734Z,101746.67
2018-06-30T03:29:49.036Z,101746.64
2018-06-30T03:34:51.314Z,101752.59
2018-06-30T03:39:53.662Z,101752.53
2018-06-30T03:44:55.919Z,101763.62
2018-06-30T03:49:58.200Z,101769.78
2018-06-30T03:55:00.457Z,101766.73
2018-06-30T04:00:03.054Z,101768.63
2018-06-30T04:05:05.447Z,101773.95
2018-06-30T04:10:07.701Z,101768.84
2018-06-30T04:15:09.983Z,101775.45
2018-06-30T04:20:12.239Z,101770.34
2018-06-30T04:25:14.498Z,101769.37
2018-06-30T04:30:16.798Z,101777.03
2018-06-30T04:35:19.062Z,101778.16
2018-06-30T04:40:21.558Z,101780.23
2018-06-30T04:45:23.847Z,101780.84
2018-06-30T04:50:26.283Z,101788.53
2018-06-30T04:55:29.551Z,101785.47
2018-06-30T05:00:31.890Z,101784.77
2018-06-30T05:05:35.065Z,101787.03
2018-06-30T05:10:37.319Z,101789.11
2018-06-30T05:15:39.617Z,101798.77
2018-06-30T05:20:41.891Z,101801.07
2018-06-30T05:25:44.150Z,101805.84
2018-06-30T05:30:46.447Z,101803.13
2018-06-30T05:35:48.748Z,101810.81
2018-06-30T05:40:51.025Z,101811.47
2018-06-30T05:45:53.285Z,101812.92
2018-06-30T05:50:55.552Z,101816.73
2018-06-30T05:55:57.840Z,101810.22
2018-06-30T06:01:00.202Z,101808.96
2018-06-30T06:06:02.502Z,101815.72
2018-06-30T06:11:04.989Z,101812.55
2018-06-30T06:16:07.264Z,101819.44
2018-06-30T06:21:09.570Z,101811.08
2018-06-30T06:26:11.900Z,101815.85
2018-06-30T06:31:14.191Z,101807.78
2018-06-30T06:36:16.647Z,101814.80
2018-06-30T06:41:18.990Z,101817.25
2018-06-30T06:46:21.286Z,101810.27
2018-06-30T06:51:23.546Z,101807.92
2018-06-30T06:56:26.081Z,101809.40
2018-06-30T07:01:28.372Z,101817.12
2018-06-30T07:06:30.643Z,101807.91
2018-06-30T07:11:32.919Z,101812.23
2018-06-30T07:16:35.244Z,101823.09
2018-06-30T07:21:37.553Z,101819.49
2018-06-30T07:26:39.890Z,101783.53
2018-06-30T07:31:42.280Z,101821.59
2018-06-30T07:36:44.494Z,101824.70
2018-06-30T07:41:46.793Z,101822.33
2018-06-30T07:46:49.067Z,101824.00
2018-06-30T07:51:51.399Z,101821.05
2018-06-30T07:56:53.670Z,101822.95
2018-06-30T08:01:55.993Z,101814.66
2018-06-30T08:06:58.320Z,101817.52
2018-06-30T08:12:00.616Z,101815.70
2018-06-30T08:17:03.102Z,101820.69
2018-06-30T08:22:05.570Z,101825.34
2018-06-30T08:27:07.939Z,101820.81
2018-06-30T08:32:10.221Z,101819.23
2018-06-30T08:37:12.529Z,101827.73
2018-06-30T08:42:14.877Z,101823.72
2018-06-30T08:47:17.193Z,101825.19
2018-06-30T08:52:19.496Z,101825.29
2018-06-30T08:57:21.796Z,101820.70
2018-06-30T09:02:24.390Z,101820.37
2018-06-30T09:07:26.689Z,101820.36
2018-06-30T09:12:28.965Z,101817.68
2018-06-30T09:17:31.290Z,101816.08
2018-06-30T09:22:33.645Z,101817.70
2018-06-30T09:27:35.930Z,101813.50
2018-06-30T09:32:38.219Z,101810.43
2018-06-30T09:37:40.492Z,101797.17
2018-06-30T09:42:42.801Z,101799.78
2018-06-30T09:47:45.144Z,101799.82
2018-06-30T09:52:47.454Z,101800.23
2018-06-30T09:57:49.791Z,101799.44
2018-06-30T10:02:52.687Z,101801.63
2018-06-30T10:07:54.978Z,101799.41
2018-06-30T10:12:57.281Z,101798.91
2018-06-30T10:17:59.598Z,101799.84
2018-06-30T10:23:01.908Z,101799.08
2018-06-30T10:28:04.340Z,101803.79
2018-06-30T10:33:06.644Z,101800.38
2018-06-30T10:38:08.905Z,101795.22
2018-06-30T10:43:11.226Z,101793.45
2018-06-30T10:48:13.594Z,101788.67
2018-06-30T10:53:15.906Z,101789.03
2018-06-30T10:58:18.227Z,101793.22
2018-06-30T11:03:20.591Z,101793.64
2018-06-30T11:08:22.891Z,101782.37
2018-06-30T11:13:25.183Z,101778.65
2018-06-30T11:18:27.498Z,101781.88
2018-06-30T11:23:29.833Z,101786.69
2018-06-30T11:28:32.162Z,101780.16
2018-06-30T11:33:34.469Z,101778.16
2018-06-30T11:38:36.771Z,101775.36
2018-06-30T11:43:39.076Z,101767.93
2018-06-30T11:48:41.325Z,101767.70
2018-06-30T11:53:43.631Z,101767.34
2018-06-30T11:58:45.916Z,101771.41
2018-06-30T12:03:48.262Z,101767.83
2018-06-30T12:08:50.722Z,101759.19
2018-06-30T12:13:53.085Z,101758.45
2018-06-30T12:18:55.412Z,101752.13
2018-06-30T12:23:57.698Z,101755.64
2018-06-30T12:28:59.999Z,101752.94
2018-06-30T12:34:02.345Z,101752.48
2018-06-30T12:39:06.721Z,101749.79
2018-06-30T12:44:08.983Z,101748.96
2018-06-30T12:49:11.270Z,101750.86
2018-06-30T12:54:13.650Z,101750.26
2018-06-30T12:59:15.941Z,101745.05
2018-06-30T13:04:18.283Z,101746.09
2018-06-30T13:09:20.655Z,101745.27
2018-06-30T13:14:22.949Z,101742.70
2018-06-30T13:19:25.277Z,101735.56
2018-06-30T13:24:27.599Z,101741.52
2018-06-30T13:29:29.921Z,101735.79
2018-06-30T13:34:32.297Z,101731.22
2018-06-30T13:39:34.588Z,101739.53
2018-06-30T13:44:37.007Z,101738.81
2018-06-30T13:49:39.342Z,101722.70
2018-06-30T13:54:41.678Z,101732.00
2018-06-30T13:59:44.047Z,101729.66
2018-06-30T14:04:46.436Z,101736.17
2018-06-30T14:09:48.790Z,101731.49
2018-06-30T14:14:51.115Z,101726.97
2018-06-30T14:19:53.426Z,101731.13
2018-06-30T14:24:55.812Z,101733.14
2018-06-30T14:29:58.147Z,101723.22
2018-06-30T14:35:00.460Z,101723.38
2018-06-30T14:40:02.848Z,101719.62
2018-06-30T14:45:05.266Z,101720.52
2018-06-30T14:50:07.621Z,101717.38
2018-06-30T14:55:09.997Z,101725.17
2018-06-30T15:00:12.311Z,101719.44
2018-06-30T15:05:14.692Z,101711.09
2018-06-30T15:10:17.060Z,101720.91
2018-06-30T15:15:19.443Z,101718.74
2018-06-30T15:20:22.054Z,101721.42
2018-06-30T15:25:24.367Z,101717.61
2018-06-30T15:30:26.763Z,101713.25
2018-06-30T15:35:29.070Z,101713.20
2018-06-30T15:40:31.375Z,101709.69
2018-06-30T15:45:33.707Z,101711.64
2018-06-30T15:50:36.126Z,101712.20
2018-06-30T15:55:38.434Z,101709.66
2018-06-30T16:00:40.745Z,101710.53
2018-06-30T16:05:43.788Z,101704.19
2018-06-30T16:10:46.109Z,101714.53
2018-06-30T16:15:48.417Z,101709.75
2018-06-30T16:20:50.715Z,101709.34
2018-06-30T16:25:53.002Z,101712.74
2018-06-30T16:30:55.319Z,101702.84
2018-06-30T16:35:57.836Z,101704.01
2018-06-30T16:41:00.145Z,101706.52
2018-06-30T16:46:02.484Z,101708.72
2018-06-30T16:51:04.892Z,101700.33
2018-06-30T16:56:07.238Z,101703.83
2018-06-30T17:01:09.576Z,101689.42
2018-06-30T17:06:11.914Z,101697.94
2018-06-30T17:11:14.214Z,101700.95
2018-06-30T17:16:16.527Z,101693.66
2018-06-30T17:21:18.879Z,101697.90
2018-06-30T17:26:21.238Z,101695.16
2018-06-30T17:31:23.536Z,101701.03
2018-06-30T17:36:25.858Z,101697.13
2018-06-30T17:41:28.166Z,101698.95
2018-06-30T17:46:30.493Z,101683.28
2018-06-30T17:51:33.160Z,101700.12
2018-06-30T17:56:35.597Z,101700.78
2018-06-30T18:01:38.898Z,101703.07
2018-06-30T18:06:41.353Z,101704.04
2018-06-30T18:11:43.705Z,101703.01
2018-06-30T18:16:46.054Z,101701.61
2018-06-30T18:21:48.995Z,101710.51
2018-06-30T18:26:51.323Z,101704.34
2018-06-30T18:31:53.664Z,101706.98
2018-06-30T18:36:55.955Z,101709.12
2018-06-30T18:41:58.313Z,101716.62
2018-06-30T18:47:00.617Z,101716.50
2018-06-30T18:52:03.011Z,101717.15
2018-06-30T18:57:05.420Z,101719.42
2018-06-30T19:02:07.775Z,101729.80
2018-06-30T19:07:10.099Z,101737.14
2018-06-30T19:12:12.452Z,101733.70
2018-06-30T19:17:14.784Z,101738.86
2018-06-30T19:22:17.183Z,101739.30
2018-06-30T19:27:19.556Z,101742.74
2018-06-30T19:32:21.864Z,101745.30
2018-06-30T19:37:24.293Z,101748.76
2018-06-30T19:42:26.628Z,101747.89
2018-06-30T19:47:28.901Z,101743.60
2018-06-30T19:52:31.272Z,101752.64
2018-06-30T19:57:33.558Z,101754.80
2018-06-30T20:02:35.900Z,101759.53
2018-06-30T20:07:44.067Z,101764.69
2018-06-30T20:12:46.448Z,101764.26
2018-06-30T20:17:48.827Z,101764.70
2018-06-30T20:22:51.175Z,101769.39
2018-06-30T20:27:53.567Z,101772.00
2018-06-30T20:32:55.873Z,101768.13
2018-06-30T20:37:58.227Z,101771.50
2018-06-30T20:43:00.559Z,101772.81
2018-06-30T20:48:02.949Z,101781.83
2018-06-30T20:53:05.485Z,101786.11
2018-06-30T20:58:07.852Z,101781.77
2018-06-30T21:03:12.257Z,101790.56
2018-06-30T21:08:15.282Z,101795.45
2018-06-30T21:13:17.611Z,101792.69
2018-06-30T21:18:19.939Z,101792.56
2018-06-30T21:23:22.255Z,101798.08
2018-06-30T21:28:24.599Z,101792.02
2018-06-30T21:33:26.916Z,101795.30
2018-06-30T21:38:29.326Z,101796.49
2018-06-30T21:43:31.644Z,101800.34
2018-06-30T21:48:34.089Z,101804.55
2018-06-30T21:53:37.112Z,101807.10
2018-06-30T21:58:39.426Z,101813.27
2018-06-30T22:03:42.007Z,101809.22
2018-06-30T22:08:44.335Z,101812.45
2018-06-30T22:13:46.649Z,101808.11
2018-06-30T22:18:48.976Z,101813.30
2018-06-30T22:23:51.296Z,101816.89
2018-06-30T22:28:53.610Z,101816.40
2018-06-30T22:33:55.977Z,101815.98
2018-06-30T22:38:58.278Z,101817.00
2018-06-30T22:44:00.604Z,101816.16
2018-06-30T22:49:02.999Z,101814.58
2018-06-30T22:54:05.743Z,101822.44
2018-06-30T22:59:08.060Z,101819.95
2018-06-30T23:04:10.376Z,101816.11
2018-06-30T23:09:12.709Z,101827.41
2018-06-30T23:14:15.028Z,101825.80
2018-06-30T23:19:17.328Z,101828.78
2018-06-30T23:24:19.626Z,101836.25
2018-06-30T23:29:21.940Z,101840.39
2018-06-30T23:34:24.265Z,101836.95
2018-06-30T23:39:26.588Z,101837.81
2018-06-30T23:44:28.927Z,101843.03
2018-06-30T23:49:31.199Z,101842.22
2018-06-30T23:54:33.474Z,101842.98
2018-06-30T23:59:35.782Z,101843.88
